Time;durP1;ratioP1;P1;durP2;ratioP2;P2;SDS_P1;SDS_P2;PMS_P1;PMS_P2;Temp;Humidity;BMP_temperature;BMP_pressure;BME280_temperature;BME280_humidity;BME280_pressure;Samples;Min_cycle;Max_cycle;Signal;HPM_P1;HPM_P2
2022/09/23 00:01:57;;;;;;;6.28;1.63;;;;;;;;;;4847002;29;20090;-82
2022/09/23 00:04:24;;;;;;;4.32;2.00;;;;;;;;;;4847080;29;20116;-80
2022/09/23 00:06:51;;;;;;;3.88;1.52;;;;;;;;;;4863821;29;20506;-82
2022/09/23 00:09:17;;;;;;;2.85;1.38;;;;;;;;;;4846788;29;20040;-81
2022/09/23 00:11:43;;;;;;;9.15;2.42;;;;;;;;;;4863795;29;20033;-80
2022/09/23 00:14:09;;;;;;;4.13;2.00;;;;;;;;;;4847141;29;20040;-81
2022/09/23 00:16:37;;;;;;;5.63;2.03;;;;;;;;;;4863647;29;20037;-77
2022/09/23 00:19:04;;;;;;;5.68;2.00;;;;;;;;;;4846786;29;20440;-81
2022/09/23 00:21:30;;;;;;;4.40;1.40;;;;;;;;;;4846825;29;20491;-80
2022/09/23 00:23:56;;;;;;;3.42;1.20;;;;;;;;;;4845652;29;20037;-80
2022/09/23 00:26:22;;;;;;;1.98;1.10;;;;;;;;;;4846859;29;20032;-81
2022/09/23 00:28:49;;;;;;;2.45;1.48;;;;;;;;;;4846699;29;20120;-80
2022/09/23 00:31:20;;;;;;;5.28;0.95;;;;;;;;;;4846475;29;20542;-80
2022/09/23 00:33:46;;;;;;;10.20;1.55;;;;;;;;;;4846649;29;20057;-81
2022/09/23 00:36:14;;;;;;;2.67;1.20;;;;;;;;;;4846357;29;20040;-78
2022/09/23 00:38:40;;;;;;;3.28;1.50;;;;;;;;;;4851296;29;20029;-79
2022/09/23 00:41:07;;;;;;;2.83;1.50;;;;;;;;;;4854470;29;20021;-78
2022/09/23 00:43:41;;;;;;;3.50;1.35;;;;;;;;;;4855273;29;20482;-79
2022/09/23 00:46:12;;;;;;;4.70;1.10;;;;;;;;;;4838184;29;20049;-79
2022/09/23 00:48:40;;;;;;;2.05;1.30;;;;;;;;;;4857351;29;20037;-80
2022/09/23 00:51:08;;;;;;;3.50;1.10;;;;;;;;;;4864214;29;20025;-80
2022/09/23 00:53:35;;;;;;;6.10;1.30;;;;;;;;;;4859077;29;20037;-79
2022/09/23 00:56:02;;;;;;;2.53;1.33;;;;;;;;;;4852876;29;20030;-80
2022/09/23 00:58:30;;;;;;;3.00;1.42;;;;;;;;;;4847968;29;20116;-81
2022/09/23 01:00:58;;;;;;;7.85;1.35;;;;;;;;;;4845238;29;20044;-83
2022/09/23 01:03:25;;;;;;;3.08;1.17;;;;;;;;;;4870523;29;20036;-81
2022/09/23 01:05:51;;;;;;;2.22;0.95;;;;;;;;;;4835583;29;20029;-82
2022/09/23 01:08:19;;;;;;;1.75;1.02;;;;;;;;;;4851193;29;20025;-82
2022/09/23 01:10:57;;;;;;;2.88;1.23;;;;;;;;;;4875112;29;20112;-78
2022/09/23 01:13:41;;;;;;;3.45;1.00;;;;;;;;;;4866437;29;20041;-82
2022/09/23 01:16:10;;;;;;;3.95;1.30;;;;;;;;;;4864683;29;20415;-79
2022/09/23 01:18:42;;;;;;;2.50;0.95;;;;;;;;;;4853612;29;20041;-79
2022/09/23 01:21:15;;;;;;;10.27;1.67;;;;;;;;;;4843434;29;20037;-81
2022/09/23 01:23:55;;;;;;;5.18;1.55;;;;;;;;;;4852354;29;20450;-80
2022/09/23 01:26:24;;;;;;;3.30;1.58;;;;;;;;;;4855521;29;20061;-81
2022/09/23 01:28:56;;;;;;;3.35;1.17;;;;;;;;;;4856827;29;20427;-82
2022/09/23 01:31:25;;;;;;;10.48;4.35;;;;;;;;;;4847330;29;20029;-78
2022/09/23 01:34:00;;;;;;;8.70;3.85;;;;;;;;;;4855410;29;20056;-81
2022/09/23 01:36:35;;;;;;;11.70;3.58;;;;;;;;;;4874415;29;20067;-80
2022/09/23 01:39:01;;;;;;;10.43;4.45;;;;;;;;;;4866941;29;20036;-80
2022/09/23 01:41:40;;;;;;;8.82;4.65;;;;;;;;;;4845699;29;20060;-82
2022/09/23 01:44:06;;;;;;;9.80;3.55;;;;;;;;;;4862251;29;20037;-81
2022/09/23 01:46:36;;;;;;;8.85;3.20;;;;;;;;;;4861711;29;20026;-81
2022/09/23 01:49:23;;;;;;;11.52;5.32;;;;;;;;;;4845074;29;20034;-82
2022/09/23 01:51:52;;;;;;;38.38;12.05;;;;;;;;;;4845269;29;20037;-82
2022/09/23 01:54:21;;;;;;;34.38;11.63;;;;;;;;;;4861909;29;20037;-81
2022/09/23 01:56:51;;;;;;;27.77;8.88;;;;;;;;;;4845148;29;20036;-82
2022/09/23 01:59:17;;;;;;;14.07;6.32;;;;;;;;;;4845218;29;20637;-82
2022/09/23 02:02:06;;;;;;;18.40;6.40;;;;;;;;;;4845024;29;20032;-81
2022/09/23 02:04:38;;;;;;;14.68;6.68;;;;;;;;;;4828232;29;20041;-83
2022/09/23 02:07:07;;;;;;;8.27;4.20;;;;;;;;;;4845214;29;20037;-82
2022/09/23 02:09:42;;;;;;;9.18;3.85;;;;;;;;;;4845272;29;20054;-82
2022/09/23 02:12:11;;;;;;;11.10;3.88;;;;;;;;;;4845134;29;20025;-81
2022/09/23 02:14:59;;;;;;;9.95;4.38;;;;;;;;;;4845089;29;20428;-82
2022/09/23 02:17:38;;;;;;;7.75;3.80;;;;;;;;;;4845040;29;20053;-81
2022/09/23 02:20:06;;;;;;;9.18;3.58;;;;;;;;;;4844891;29;20050;-79
2022/09/23 02:22:39;;;;;;;8.98;3.42;;;;;;;;;;4844989;29;20179;-81
2022/09/23 02:25:06;;;;;;;7.72;3.50;;;;;;;;;;4862099;29;20040;-81
2022/09/23 02:27:39;;;;;;;5.43;3.05;;;;;;;;;;4861546;29;20109;-82
2022/09/23 02:30:08;;;;;;;5.60;2.50;;;;;;;;;;4844875;29;20061;-79
2022/09/23 02:32:34;;;;;;;10.38;2.85;;;;;;;;;;4844747;29;20483;-83
2022/09/23 02:35:19;;;;;;;7.18;2.70;;;;;;;;;;4861376;29;20037;-80
2022/09/23 02:37:46;;;;;;;7.43;2.90;;;;;;;;;;4844670;29;20040;-81
2022/09/23 02:40:16;;;;;;;5.03;2.55;;;;;;;;;;4844692;29;20029;-82
2022/09/23 02:43:04;;;;;;;6.65;2.45;;;;;;;;;;4861263;29;20045;-80
2022/09/23 02:45:30;;;;;;;7.30;2.22;;;;;;;;;;4844806;29;20037;-79
2022/09/23 02:48:01;;;;;;;3.70;1.55;;;;;;;;;;4847174;29;20041;-82
2022/09/23 02:50:29;;;;;;;4.60;1.83;;;;;;;;;;4848561;29;20033;-80
2022/09/23 02:52:55;;;;;;;4.35;1.48;;;;;;;;;;4848582;29;20052;-79
2022/09/23 02:55:23;;;;;;;3.70;1.60;;;;;;;;;;4848436;29;20033;-82
2022/09/23 02:57:52;;;;;;;2.60;1.20;;;;;;;;;;4848412;29;20069;-81
2022/09/23 03:00:18;;;;;;;6.03;1.98;;;;;;;;;;4848255;29;20030;-82
2022/09/23 03:03:15;;;;;;;2.30;1.10;;;;;;;;;;4848166;29;20038;-82
2022/09/23 03:05:46;;;;;;;1.85;0.93;;;;;;;;;;4840687;29;20701;-82
2022/09/23 03:08:21;;;;;;;4.63;1.83;;;;;;;;;;4848234;29;20038;-79
2022/09/23 03:10:47;;;;;;;2.00;1.45;;;;;;;;;;4848423;29;20025;-82
2022/09/23 03:13:18;;;;;;;5.05;1.23;;;;;;;;;;4848423;29;20040;-83
2022/09/23 03:15:51;;;;;;;2.83;1.63;;;;;;;;;;4848109;29;20495;-79
2022/09/23 03:18:20;;;;;;;3.50;1.42;;;;;;;;;;4848006;29;20057;-82
2022/09/23 03:20:56;;;;;;;3.92;1.42;;;;;;;;;;4848150;29;20040;-82
2022/09/23 03:23:25;;;;;;;6.68;1.92;;;;;;;;;;4848274;29;20041;-83
2022/09/23 03:25:53;;;;;;;2.30;1.27;;;;;;;;;;4848239;29;20026;-83
2022/09/23 03:28:20;;;;;;;6.03;1.67;;;;;;;;;;4848158;29;20037;-81
2022/09/23 03:30:47;;;;;;;3.33;1.70;;;;;;;;;;4847796;29;20032;-82
2022/09/23 03:33:15;;;;;;;3.05;1.42;;;;;;;;;;4847743;29;20030;-82
2022/09/23 03:38:37;;;;;;;8.20;1.10;;;;;;;;;;4865169;29;20053;-80
2022/09/23 03:41:03;;;;;;;2.00;1.35;;;;;;;;;;4847398;29;20604;-82
2022/09/23 03:43:30;;;;;;;2.97;1.48;;;;;;;;;;4847442;29;20506;-80
2022/09/23 03:45:57;;;;;;;3.25;1.63;;;;;;;;;;4864457;29;20544;-82
2022/09/23 03:48:23;;;;;;;2.03;1.23;;;;;;;;;;4847619;29;20030;-82
2022/09/23 03:50:49;;;;;;;3.95;1.40;;;;;;;;;;4847567;29;20045;-81
2022/09/23 03:53:17;;;;;;;3.03;1.63;;;;;;;;;;4847708;29;20033;-82
2022/09/23 03:55:45;;;;;;;3.42;1.45;;;;;;;;;;4864319;29;20085;-81
2022/09/23 03:58:11;;;;;;;3.60;1.70;;;;;;;;;;4847517;29;20033;-80
2022/09/23 04:00:38;;;;;;;2.80;1.30;;;;;;;;;;4847531;29;20495;-79
2022/09/23 04:03:04;;;;;;;2.60;1.10;;;;;;;;;;4847322;29;20054;-84
2022/09/23 04:05:30;;;;;;;3.35;1.65;;;;;;;;;;4847177;29;20032;-83
2022/09/23 04:07:56;;;;;;;2.45;1.40;;;;;;;;;;4847278;29;20056;-83
2022/09/23 04:10:23;;;;;;;4.93;1.75;;;;;;;;;;4847052;29;20025;-83
2022/09/23 04:12:49;;;;;;;2.58;1.27;;;;;;;;;;4847004;29;20068;-81
2022/09/23 04:15:15;;;;;;;2.65;1.40;;;;;;;;;;4847008;29;20029;-79
2022/09/23 04:17:41;;;;;;;4.05;1.63;;;;;;;;;;4847006;29;20033;-81
2022/09/23 04:20:07;;;;;;;4.03;1.70;;;;;;;;;;4847265;29;20093;-83
2022/09/23 04:22:34;;;;;;;4.55;1.88;;;;;;;;;;4863926;29;20049;-83
2022/09/23 04:25:00;;;;;;;5.30;2.20;;;;;;;;;;4847055;29;20025;-81
2022/09/23 04:27:26;;;;;;;6.85;2.42;;;;;;;;;;4847015;29;20128;-83
2022/09/23 04:29:52;;;;;;;12.52;3.03;;;;;;;;;;4846817;29;20041;-79
2022/09/23 04:32:18;;;;;;;15.55;6.00;;;;;;;;;;4846795;29;20025;-80
2022/09/23 04:34:45;;;;;;;12.65;4.93;;;;;;;;;;4846785;29;20436;-78
2022/09/23 04:37:11;;;;;;;14.95;5.75;;;;;;;;;;4846631;29;20025;-80
2022/09/23 04:39:37;;;;;;;11.32;4.28;;;;;;;;;;4846625;29;20368;-78
2022/09/23 04:42:03;;;;;;;10.40;4.20;;;;;;;;;;4846641;29;20089;-81
2022/09/23 04:44:29;;;;;;;14.48;3.80;;;;;;;;;;4846300;29;20029;-80
2022/09/23 04:46:55;;;;;;;9.23;4.15;;;;;;;;;;4862929;29;20022;-81
2022/09/23 04:49:22;;;;;;;11.25;4.57;;;;;;;;;;4846180;29;20033;-80
2022/09/23 04:51:48;;;;;;;9.35;4.80;;;;;;;;;;4846482;29;20089;-81
2022/09/23 04:54:14;;;;;;;13.23;4.38;;;;;;;;;;4846177;29;20033;-81
2022/09/23 04:56:41;;;;;;;7.93;3.70;;;;;;;;;;4846163;29;20025;-80
2022/09/23 04:59:07;;;;;;;6.53;3.22;;;;;;;;;;4862505;29;20491;-80
2022/09/23 05:01:34;;;;;;;8.88;4.20;;;;;;;;;;4845958;29;20029;-79
2022/09/23 05:04:05;;;;;;;12.45;5.80;;;;;;;;;;4845889;29;20066;-81
2022/09/23 05:06:35;;;;;;;13.43;5.85;;;;;;;;;;4836661;29;20026;-78
2022/09/23 05:09:02;;;;;;;11.38;5.88;;;;;;;;;;4842455;29;20052;-79
2022/09/23 05:11:30;;;;;;;8.70;4.97;;;;;;;;;;4851248;29;20029;-79
2022/09/23 05:13:56;;;;;;;11.52;4.95;;;;;;;;;;4845492;29;20026;-79
2022/09/23 05:16:22;;;;;;;9.15;4.65;;;;;;;;;;4861972;29;20494;-79
2022/09/23 05:18:49;;;;;;;9.20;4.07;;;;;;;;;;4845244;29;20053;-79
2022/09/23 05:21:16;;;;;;;10.90;4.70;;;;;;;;;;4845242;29;20037;-78
2022/09/23 05:23:46;;;;;;;12.05;4.70;;;;;;;;;;4836554;29;20044;-80
2022/09/23 05:26:13;;;;;;;11.13;4.15;;;;;;;;;;4842220;29;20154;-80
2022/09/23 05:28:39;;;;;;;8.88;4.28;;;;;;;;;;4842444;29;20038;-78
2022/09/23 05:31:08;;;;;;;9.88;4.28;;;;;;;;;;4842460;29;20118;-78
2022/09/23 05:33:35;;;;;;;9.07;4.72;;;;;;;;;;4842491;29;20033;-79
2022/09/23 05:36:02;;;;;;;13.13;4.95;;;;;;;;;;4842065;29;20034;-77
2022/09/23 05:38:28;;;;;;;11.75;4.63;;;;;;;;;;4841995;29;20037;-80
2022/09/23 05:40:58;;;;;;;10.07;5.03;;;;;;;;;;4841826;29;20030;-77
2022/09/23 05:43:24;;;;;;;12.20;5.43;;;;;;;;;;4843081;29;20045;-77
2022/09/23 05:45:50;;;;;;;11.27;4.97;;;;;;;;;;4841841;29;20106;-77
2022/09/23 05:48:17;;;;;;;13.75;6.85;;;;;;;;;;4841918;29;20037;-78
2022/09/23 05:50:52;;;;;;;15.10;7.03;;;;;;;;;;4852031;29;20030;-78
2022/09/23 05:53:18;;;;;;;18.23;7.90;;;;;;;;;;4844722;29;20090;-77
2022/09/23 05:55:45;;;;;;;13.93;6.90;;;;;;;;;;4844684;29;20029;-78
2022/09/23 05:58:14;;;;;;;21.45;6.90;;;;;;;;;;4844674;29;20029;-78
2022/09/23 06:00:41;;;;;;;20.70;7.18;;;;;;;;;;4849229;29;20034;-78
2022/09/23 06:03:17;;;;;;;16.23;6.72;;;;;;;;;;4844426;29;20414;-78
2022/09/23 06:05:43;;;;;;;18.63;7.05;;;;;;;;;;4844314;29;20037;-77
2022/09/23 06:08:10;;;;;;;16.65;7.43;;;;;;;;;;4844507;29;20041;-79
2022/09/23 06:10:40;;;;;;;17.80;9.77;;;;;;;;;;4844410;29;20120;-80
2022/09/23 06:13:07;;;;;;;28.33;9.07;;;;;;;;;;4861504;29;20040;-77
2022/09/23 06:15:33;;;;;;;21.45;8.63;;;;;;;;;;4861057;29;20497;-79
2022/09/23 06:17:59;;;;;;;10.25;5.72;;;;;;;;;;4844311;29;20037;-79
2022/09/23 06:20:25;;;;;;;9.25;3.88;;;;;;;;;;4844320;29;20033;-77
2022/09/23 06:22:52;;;;;;;6.70;3.38;;;;;;;;;;4844232;29;20045;-79
2022/09/23 06:25:19;;;;;;;5.00;3.08;;;;;;;;;;4860974;29;20477;-77
2022/09/23 06:27:54;;;;;;;6.75;2.70;;;;;;;;;;4844571;29;20035;-77
2022/09/23 06:30:25;;;;;;;6.35;2.88;;;;;;;;;;4844134;29;20092;-76
2022/09/23 06:32:51;;;;;;;4.88;2.65;;;;;;;;;;4844190;29;20033;-76
2022/09/23 06:35:18;;;;;;;3.63;1.98;;;;;;;;;;4844304;29;20043;-73
2022/09/23 06:37:45;;;;;;;4.28;2.20;;;;;;;;;;4860841;29;20029;-76
2022/09/23 06:40:13;;;;;;;5.75;2.50;;;;;;;;;;4861034;29;20077;-75
2022/09/23 06:42:39;;;;;;;4.13;2.20;;;;;;;;;;4860602;29;20082;-77
2022/09/23 06:45:05;;;;;;;4.20;2.20;;;;;;;;;;4860968;29;20036;-77
2022/09/23 06:47:31;;;;;;;6.22;2.20;;;;;;;;;;4860812;29;20112;-77
2022/09/23 06:49:57;;;;;;;6.35;2.15;;;;;;;;;;4859640;29;20030;-77
2022/09/23 06:52:25;;;;;;;4.60;1.92;;;;;;;;;;4856954;29;20033;-77
2022/09/23 06:54:51;;;;;;;3.60;1.83;;;;;;;;;;4845609;29;20037;-79
2022/09/23 06:57:17;;;;;;;2.63;1.70;;;;;;;;;;4860697;29;20113;-79
2022/09/23 06:59:43;;;;;;;3.40;1.85;;;;;;;;;;4860714;29;20033;-78
2022/09/23 07:02:09;;;;;;;5.22;2.33;;;;;;;;;;4843945;29;20101;-76
2022/09/23 07:04:36;;;;;;;4.07;2.05;;;;;;;;;;4843806;29;20081;-77
2022/09/23 07:07:02;;;;;;;6.80;1.88;;;;;;;;;;4860678;29;20033;-77
2022/09/23 07:09:28;;;;;;;6.13;2.30;;;;;;;;;;4844113;29;20368;-77
2022/09/23 07:11:54;;;;;;;5.22;1.67;;;;;;;;;;4860553;29;20025;-75
2022/09/23 07:14:20;;;;;;;5.38;2.58;;;;;;;;;;4860293;29;20048;-75
2022/09/23 07:16:49;;;;;;;5.32;1.95;;;;;;;;;;4843656;29;20102;-76
2022/09/23 07:19:16;;;;;;;3.63;1.80;;;;;;;;;;4860228;29;20053;-74
2022/09/23 07:21:42;;;;;;;4.90;1.95;;;;;;;;;;4843377;29;20025;-77
2022/09/23 07:24:08;;;;;;;3.83;2.10;;;;;;;;;;4859751;29;20035;-77
2022/09/23 07:26:34;;;;;;;3.55;1.50;;;;;;;;;;4860311;29;20495;-77
2022/09/23 07:29:03;;;;;;;3.75;1.45;;;;;;;;;;4860338;29;20033;-76
2022/09/23 07:31:30;;;;;;;2.67;1.35;;;;;;;;;;4860238;29;20411;-75
2022/09/23 07:33:57;;;;;;;2.63;1.33;;;;;;;;;;4845857;29;20439;-77
2022/09/23 07:36:26;;;;;;;3.85;1.42;;;;;;;;;;4863745;29;20081;-78
2022/09/23 07:38:54;;;;;;;3.65;1.38;;;;;;;;;;4846976;29;20041;-78
2022/09/23 07:41:20;;;;;;;3.50;1.67;;;;;;;;;;4847053;29;20033;-78
2022/09/23 07:43:46;;;;;;;3.83;1.80;;;;;;;;;;4846890;29;20100;-77
2022/09/23 07:46:15;;;;;;;4.38;1.40;;;;;;;;;;4847015;29;20089;-78
2022/09/23 07:48:41;;;;;;;6.20;1.60;;;;;;;;;;4863588;29;20170;-78
2022/09/23 07:51:07;;;;;;;2.35;1.30;;;;;;;;;;4846894;29;20475;-78
2022/09/23 07:53:33;;;;;;;4.45;1.70;;;;;;;;;;4846935;29;20032;-76
2022/09/23 07:55:59;;;;;;;4.15;1.52;;;;;;;;;;4863456;29;20076;-76
2022/09/23 07:58:25;;;;;;;2.78;1.33;;;;;;;;;;4846789;29;20029;-76
2022/09/23 08:00:55;;;;;;;2.50;1.30;;;;;;;;;;4846741;29;20040;-77
2022/09/23 08:03:21;;;;;;;2.55;1.40;;;;;;;;;;4846704;29;20402;-75
2022/09/23 08:05:47;;;;;;;2.45;1.30;;;;;;;;;;4846754;29;20028;-76
2022/09/23 08:08:13;;;;;;;3.88;1.23;;;;;;;;;;4863305;29;20117;-77
2022/09/23 08:10:39;;;;;;;2.05;1.10;;;;;;;;;;4846514;29;20506;-76
2022/09/23 08:13:05;;;;;;;3.80;1.40;;;;;;;;;;4846671;29;20030;-77
2022/09/23 08:15:32;;;;;;;3.72;1.30;;;;;;;;;;4863186;29;20025;-76
2022/09/23 08:17:59;;;;;;;3.45;1.20;;;;;;;;;;4846179;29;20368;-76
2022/09/23 08:20:44;;;;;;;2.30;1.17;;;;;;;;;;4845187;29;20030;-77
2022/09/23 08:23:12;;;;;;;3.30;1.42;;;;;;;;;;4845206;29;20045;-77
2022/09/23 08:25:38;;;;;;;2.30;1.17;;;;;;;;;;4878577;29;20025;-77
2022/09/23 08:28:05;;;;;;;2.78;1.10;;;;;;;;;;4863843;29;20072;-77
2022/09/23 08:30:31;;;;;;;4.55;1.40;;;;;;;;;;4880390;29;20061;-77
2022/09/23 08:32:57;;;;;;;2.67;1.48;;;;;;;;;;4849366;29;20029;-83
2022/09/23 08:35:23;;;;;;;2.42;1.20;;;;;;;;;;4845090;29;20036;-81
2022/09/23 08:37:49;;;;;;;4.50;1.30;;;;;;;;;;4861836;29;20030;-86
2022/09/23 08:40:15;;;;;;;1.85;1.33;;;;;;;;;;4845072;29;20093;-83
2022/09/23 08:42:44;;;;;;;2.05;1.10;;;;;;;;;;4861689;29;20377;-78
2022/09/23 08:45:25;;;;;;;2.28;1.02;;;;;;;;;;4860705;29;20120;-81
2022/09/23 08:47:51;;;;;;;2.85;1.15;;;;;;;;;;4861774;29;20101;-82
2022/09/23 08:50:19;;;;;;;1.67;0.90;;;;;;;;;;4845009;29;20506;-83
2022/09/23 08:52:51;;;;;;;3.00;1.23;;;;;;;;;;4861577;29;20451;-83
2022/09/23 08:55:18;;;;;;;3.13;1.05;;;;;;;;;;4845002;29;20029;-80
2022/09/23 08:57:44;;;;;;;2.95;1.20;;;;;;;;;;4861558;29;20039;-84
2022/09/23 09:00:18;;;;;;;2.42;1.10;;;;;;;;;;4844831;29;20034;-79
2022/09/23 09:02:44;;;;;;;3.90;1.33;;;;;;;;;;4861465;29;20110;-83
2022/09/23 09:05:11;;;;;;;2.90;1.00;;;;;;;;;;4861541;29;20058;-78
2022/09/23 09:07:40;;;;;;;1.60;0.90;;;;;;;;;;4861392;29;20112;-81
2022/09/23 09:10:15;;;;;;;4.43;1.30;;;;;;;;;;4844866;29;20056;-78
2022/09/23 09:12:41;;;;;;;3.10;1.00;;;;;;;;;;4844856;29;20436;-77
2022/09/23 09:15:13;;;;;;;4.97;1.20;;;;;;;;;;4844269;29;20082;-74
2022/09/23 09:20:34;;;;;;;3.88;1.40;;;;;;;;;;5131536;27;20116;-77
2022/09/23 09:23:06;;;;;;;1.70;1.00;;;;;;;;;;5111328;28;20484;-77
2022/09/23 09:25:37;;;;;;;2.38;1.08;;;;;;;;;;5092689;28;20031;-77
2022/09/23 09:28:11;;;;;;;2.47;1.02;;;;;;;;;;5092769;28;20036;-76
2022/09/23 09:30:37;;;;;;;1.55;0.77;;;;;;;;;;5092560;28;20078;-77
2022/09/23 09:33:05;;;;;;;2.00;0.90;;;;;;;;;;5110884;28;20365;-76
2022/09/23 09:35:40;;;;;;;1.95;1.08;;;;;;;;;;5110682;28;20012;-76
2022/09/23 09:38:06;;;;;;;3.90;0.90;;;;;;;;;;5092465;28;20024;-77
2022/09/23 09:40:33;;;;;;;2.13;0.77;;;;;;;;;;5110611;28;20028;-75
2022/09/23 09:43:03;;;;;;;2.00;0.73;;;;;;;;;;5092340;28;20111;-77
2022/09/23 09:45:37;;;;;;;4.07;0.90;;;;;;;;;;5110706;28;20027;-75
2022/09/23 09:48:09;;;;;;;2.67;1.10;;;;;;;;;;5110523;28;20027;-77
2022/09/23 09:50:52;;;;;;;2.00;0.80;;;;;;;;;;5092361;28;20364;-77
2022/09/23 09:53:29;;;;;;;2.13;1.02;;;;;;;;;;5099365;28;20104;-76
2022/09/23 09:55:58;;;;;;;6.25;1.25;;;;;;;;;;5088257;28;20032;-77
2022/09/23 09:58:26;;;;;;;1.98;0.80;;;;;;;;;;5091876;28;20024;-77
2022/09/23 10:00:53;;;;;;;1.50;0.88;;;;;;;;;;5078966;28;20044;-81
2022/09/23 10:03:34;;;;;;;2.05;0.90;;;;;;;;;;5089661;28;20025;-82
2022/09/23 10:06:12;;;;;;;7.97;0.90;;;;;;;;;;5071554;28;20099;-80
2022/09/23 10:08:38;;;;;;;2.47;0.80;;;;;;;;;;5071316;28;20058;-81
2022/09/23 10:11:07;;;;;;;1.92;1.00;;;;;;;;;;5082478;28;20020;-82
2022/09/23 10:13:34;;;;;;;1.95;0.70;;;;;;;;;;5088551;28;20512;-83
2022/09/23 10:16:02;;;;;;;1.70;0.85;;;;;;;;;;5098106;28;20094;-81
2022/09/23 10:18:37;;;;;;;1.50;0.70;;;;;;;;;;5097799;28;20075;-82
2022/09/23 10:21:14;;;;;;;2.70;0.80;;;;;;;;;;5089365;28;20388;-82
2022/09/23 10:23:51;;;;;;;1.80;0.70;;;;;;;;;;5071589;28;20031;-83
2022/09/23 10:26:25;;;;;;;1.95;0.60;;;;;;;;;;5071157;28;20369;-85
2022/09/23 10:28:54;;;;;;;1.23;0.60;;;;;;;;;;5070948;28;20067;-81
2022/09/23 10:31:29;;;;;;;2.25;0.77;;;;;;;;;;5060141;28;20106;-82
2022/09/23 10:34:02;;;;;;;3.10;0.43;;;;;;;;;;5057823;28;20028;-82
2022/09/23 10:36:29;;;;;;;1.20;0.50;;;;;;;;;;5057568;28;20123;-83
2022/09/23 10:47:38;;;;;;;1.13;0.50;;;;;;;;;;5062327;28;20582;-81
2022/09/23 10:50:10;;;;;;;1.70;0.50;;;;;;;;;;5039674;28;20040;-82
2022/09/23 10:52:37;;;;;;;;;;;;;;;;;;5075610;28;20035;-84
2022/09/23 10:55:03;;;;;;;1.17;0.40;;;;;;;;;;5050634;28;19916;-82
2022/09/23 10:57:45;;;;;;;0.70;0.40;;;;;;;;;;5037496;28;20021;-81
2022/09/23 11:00:22;;;;;;;0.70;0.30;;;;;;;;;;5042933;28;20404;-84
2022/09/23 11:03:12;;;;;;;0.85;0.40;;;;;;;;;;5057298;28;20032;-81
2022/09/23 11:05:38;;;;;;;1.50;0.60;;;;;;;;;;5056523;28;20032;-82
2022/09/23 11:08:29;;;;;;;1.13;0.60;;;;;;;;;;5075485;28;20020;-83
2022/09/23 11:11:14;;;;;;;1.23;0.60;;;;;;;;;;5057382;28;20024;-82
2022/09/23 11:13:51;;;;;;;2.55;0.82;;;;;;;;;;5057040;28;20384;-81
2022/09/23 11:16:17;;;;;;;1.60;0.60;;;;;;;;;;5074967;28;20467;-83
2022/09/23 11:19:02;;;;;;;1.42;0.50;;;;;;;;;;5074447;28;20044;-83
2022/09/23 11:21:28;;;;;;;1.73;0.75;;;;;;;;;;5056893;28;20090;-82
2022/09/23 11:23:57;;;;;;;1.67;0.60;;;;;;;;;;5074809;28;20481;-81
2022/09/23 11:26:30;;;;;;;1.60;0.50;;;;;;;;;;5056907;28;20082;-82
2022/09/23 11:29:15;;;;;;;4.47;1.00;;;;;;;;;;5056843;28;20028;-81
2022/09/23 11:32:00;;;;;;;3.72;0.90;;;;;;;;;;5056487;28;20412;-82
2022/09/23 11:34:41;;;;;;;2.75;1.10;;;;;;;;;;5056633;28;20095;-80
2022/09/23 11:37:15;;;;;;;2.47;1.20;;;;;;;;;;5056607;28;20615;-78
2022/09/23 11:39:50;;;;;;;3.15;1.00;;;;;;;;;;5056375;28;20032;-81
2022/09/23 11:42:20;;;;;;;3.95;1.20;;;;;;;;;;5055207;28;20058;-80
2022/09/23 11:44:52;;;;;;;2.50;1.27;;;;;;;;;;5074461;28;20107;-81
2022/09/23 11:47:25;;;;;;;2.90;1.27;;;;;;;;;;5056291;28;20032;-80
2022/09/23 11:49:57;;;;;;;3.10;1.65;;;;;;;;;;5074232;28;20493;-80
2022/09/23 11:52:33;;;;;;;2.53;1.20;;;;;;;;;;5056341;28;20111;-80
2022/09/23 11:54:59;;;;;;;1.90;0.80;;;;;;;;;;5056270;28;20031;-79
2022/09/23 11:57:37;;;;;;;2.10;0.77;;;;;;;;;;5074061;28;20067;-79
2022/09/23 12:00:04;;;;;;;2.80;0.90;;;;;;;;;;5058165;28;20035;-81
2022/09/23 12:02:33;;;;;;;3.92;1.00;;;;;;;;;;5075915;28;20024;-80
2022/09/23 12:05:03;;;;;;;1.33;0.80;;;;;;;;;;5076103;28;20032;-81
2022/09/23 12:07:43;;;;;;;5.13;0.90;;;;;;;;;;5075846;28;20020;-80
2022/09/23 12:10:10;;;;;;;1.60;0.90;;;;;;;;;;5075935;28;20024;-79
2022/09/23 12:12:37;;;;;;;1.90;1.00;;;;;;;;;;5075764;28;20021;-79
2022/09/23 12:15:12;;;;;;;2.13;0.80;;;;;;;;;;5075643;28;20114;-78
2022/09/23 12:17:51;;;;;;;2.33;0.93;;;;;;;;;;5059424;28;20016;-78
2022/09/23 12:20:27;;;;;;;3.95;0.90;;;;;;;;;;5073519;28;20049;-78
2022/09/23 12:23:02;;;;;;;2.25;0.80;;;;;;;;;;5073637;28;20027;-77
2022/09/23 12:25:47;;;;;;;3.63;0.90;;;;;;;;;;5040225;28;20489;-78
2022/09/23 12:28:19;;;;;;;1.58;0.90;;;;;;;;;;5053614;28;20051;-78
2022/09/23 12:30:46;;;;;;;1.30;0.70;;;;;;;;;;5046655;28;20485;-77
2022/09/23 12:33:23;;;;;;;3.30;0.75;;;;;;;;;;5064633;28;20179;-77
2022/09/23 12:35:52;;;;;;;4.15;0.70;;;;;;;;;;5053493;28;20079;-78
2022/09/23 12:38:39;;;;;;;2.55;1.05;;;;;;;;;;5053147;28;20108;-78
2022/09/23 12:41:26;;;;;;;1.70;0.98;;;;;;;;;;5053120;28;20523;-78
2022/09/23 12:43:54;;;;;;;2.58;1.05;;;;;;;;;;5064037;28;20074;-78
2022/09/23 12:46:24;;;;;;;3.05;0.90;;;;;;;;;;5062100;28;20024;-77
2022/09/23 12:48:56;;;;;;;1.95;0.90;;;;;;;;;;5057290;28;20363;-78
2022/09/23 12:51:23;;;;;;;1.40;0.82;;;;;;;;;;5060456;28;20029;-78
2022/09/23 12:53:54;;;;;;;2.45;1.13;;;;;;;;;;5045324;28;20029;-76
2022/09/23 12:56:42;;;;;;;2.38;1.27;;;;;;;;;;5063874;28;20108;-78
2022/09/23 12:59:20;;;;;;;2.67;1.10;;;;;;;;;;5048125;28;20056;-78
2022/09/23 13:01:46;;;;;;;3.35;1.30;;;;;;;;;;5060950;28;20496;-77
2022/09/23 13:07:30;;;;;;;2.42;1.17;;;;;;;;;;5062430;28;20074;-77
2022/09/23 13:10:03;;;;;;;6.68;1.60;;;;;;;;;;5064241;28;20029;-77
2022/09/23 13:12:32;;;;;;;4.13;1.20;;;;;;;;;;5061750;28;20101;-77
2022/09/23 13:15:02;;;;;;;2.03;1.00;;;;;;;;;;5043856;28;20032;-77
2022/09/23 13:17:31;;;;;;;5.65;1.17;;;;;;;;;;5061455;28;20020;-77
2022/09/23 13:20:01;;;;;;;3.90;1.25;;;;;;;;;;5067081;28;20058;-79
2022/09/23 13:22:41;;;;;;;2.08;1.00;;;;;;;;;;5071820;28;20499;-77
2022/09/23 13:25:19;;;;;;;2.40;1.10;;;;;;;;;;5044406;28;20021;-78
2022/09/23 13:27:48;;;;;;;2.58;1.10;;;;;;;;;;5068322;28;20033;-77
2022/09/23 13:30:14;;;;;;;2.65;1.13;;;;;;;;;;5046442;28;20039;-78
2022/09/23 13:32:48;;;;;;;3.25;1.00;;;;;;;;;;5048157;28;20025;-79
2022/09/23 13:35:26;;;;;;;2.88;1.00;;;;;;;;;;5043157;28;20160;-78
2022/09/23 13:37:52;;;;;;;2.72;1.10;;;;;;;;;;5055172;28;20120;-80
2022/09/23 13:40:25;;;;;;;2.65;1.15;;;;;;;;;;5054940;28;20041;-81
2022/09/23 13:42:57;;;;;;;5.97;1.05;;;;;;;;;;5073192;28;20368;-79
2022/09/23 13:45:24;;;;;;;2.50;1.00;;;;;;;;;;5054953;28;20028;-81
2022/09/23 13:47:52;;;;;;;1.77;0.80;;;;;;;;;;5055390;28;20025;-79
2022/09/23 13:50:19;;;;;;;2.60;1.02;;;;;;;;;;5054736;28;20029;-78
2022/09/23 13:52:46;;;;;;;2.20;0.93;;;;;;;;;;5053141;28;20032;-76
2022/09/23 13:55:30;;;;;;;2.75;0.80;;;;;;;;;;5058841;28;20015;-76
2022/09/23 13:58:01;;;;;;;2.35;0.95;;;;;;;;;;5054671;28;20461;-76
2022/09/23 14:00:31;;;;;;;3.60;1.58;;;;;;;;;;5040096;28;20064;-76
2022/09/23 14:02:58;;;;;;;2.45;1.20;;;;;;;;;;5034497;28;20030;-76
2022/09/23 14:05:26;;;;;;;2.28;0.90;;;;;;;;;;5035248;28;20531;-76
2022/09/23 14:07:53;;;;;;;2.30;1.00;;;;;;;;;;5056104;28;20028;-76
2022/09/23 14:10:23;;;;;;;1.35;0.70;;;;;;;;;;5038202;28;20029;-76
2022/09/23 14:12:50;;;;;;;2.17;0.90;;;;;;;;;;5053854;28;20028;-77
2022/09/23 14:15:18;;;;;;;3.08;0.95;;;;;;;;;;5058034;28;20032;-76
2022/09/23 14:17:48;;;;;;;3.22;1.55;;;;;;;;;;5076204;28;20377;-77
2022/09/23 14:20:16;;;;;;;4.07;1.55;;;;;;;;;;5090296;28;20055;-76
2022/09/23 14:22:42;;;;;;;4.07;1.45;;;;;;;;;;5095074;28;20016;-77
2022/09/23 14:25:15;;;;;;;3.33;1.52;;;;;;;;;;5095874;28;20387;-76
2022/09/23 14:27:41;;;;;;;;;;;;;;;;;;5096663;28;20016;-76
2022/09/23 14:30:13;;;;;;;2.33;0.90;;;;;;;;;;5096084;28;19930;-77
2022/09/23 14:32:39;;;;;;;1.80;0.93;;;;;;;;;;5094899;28;20027;-76
2022/09/23 14:35:14;;;;;;;1.85;0.75;;;;;;;;;;5095737;28;20058;-76
2022/09/23 14:40:31;;;;;;;4.50;1.50;;;;;;;;;;5095708;28;20534;-73
2022/09/23 14:42:57;;;;;;;8.68;1.40;;;;;;;;;;5095771;28;20027;-72
2022/09/23 14:45:25;;;;;;;2.35;0.80;;;;;;;;;;5094243;28;20078;-77
2022/09/23 14:47:53;;;;;;;1.45;0.80;;;;;;;;;;5092219;28;20087;-76
2022/09/23 14:50:38;;;;;;;2.65;0.90;;;;;;;;;;5074037;28;20059;-76
2022/09/23 14:53:24;;;;;;;4.43;1.30;;;;;;;;;;5075114;28;20112;-76
2022/09/23 14:55:58;;;;;;;2.80;1.00;;;;;;;;;;5059704;28;20440;-77
2022/09/23 14:58:27;;;;;;;6.43;1.95;;;;;;;;;;5073963;28;20025;-76
2022/09/23 15:01:01;;;;;;;3.28;1.30;;;;;;;;;;5074011;28;20032;-76
2022/09/23 15:03:27;;;;;;;4.97;1.85;;;;;;;;;;5075214;28;20060;-76
2022/09/23 15:06:02;;;;;;;2.58;0.80;;;;;;;;;;5073811;28;20068;-76
2022/09/23 15:08:31;;;;;;;1.83;0.90;;;;;;;;;;5074785;28;20031;-77
2022/09/23 15:10:58;;;;;;;4.28;1.00;;;;;;;;;;5073761;28;20033;-77
2022/09/23 15:13:28;;;;;;;2.10;0.90;;;;;;;;;;5073714;28;20027;-76
2022/09/23 15:15:55;;;;;;;3.30;1.38;;;;;;;;;;5073267;28;20534;-76
2022/09/23 15:18:25;;;;;;;4.03;1.40;;;;;;;;;;5071461;28;20381;-76